createdAt,value
2022-09-06T00:00:44.468Z,20.97
2022-09-06T00:03:11.039Z,20.88
2022-09-06T00:05:37.950Z,20.80
2022-09-06T00:08:05.952Z,20.64
2022-09-06T00:10:33.513Z,20.65
2022-09-06T00:13:02.199Z,20.74
2022-09-06T00:15:28.929Z,20.70
2022-09-06T00:17:58.242Z,20.57
2022-09-06T00:20:27.319Z,20.69
2022-09-06T00:23:01.426Z,20.71
2022-09-06T00:25:29.434Z,20.72
2022-09-06T00:27:57.361Z,20.78
2022-09-06T00:30:24.866Z,20.75
2022-09-06T00:32:51.436Z,20.63
2022-09-06T00:35:18.530Z,20.62
2022-09-06T00:37:45.350Z,20.60
2022-09-06T00:40:12.596Z,20.63
2022-09-06T00:42:39.069Z,20.62
2022-09-06T00:45:07.414Z,20.62
2022-09-06T00:47:35.356Z,20.64
2022-09-06T00:50:02.814Z,20.67
2022-09-06T00:52:30.705Z,20.69
2022-09-06T00:54:57.457Z,20.76
2022-09-06T00:57:27.107Z,20.57
2022-09-06T00:59:55.694Z,20.45
2022-09-06T01:02:22.426Z,20.40
2022-09-06T01:04:51.240Z,20.41
2022-09-06T01:07:51.610Z,20.44
2022-09-06T01:10:47.274Z,20.57
2022-09-06T01:13:13.707Z,20.46
2022-09-06T01:15:52.884Z,20.38
2022-09-06T01:18:34.426Z,20.44
2022-09-06T01:21:03.778Z,20.45
2022-09-06T01:24:04.358Z,20.59
2022-09-06T01:26:49.471Z,20.54
2022-09-06T01:29:46.932Z,20.25
2022-09-06T01:32:51.027Z,20.15
2022-09-06T01:35:37.780Z,20.17
2022-09-06T01:38:06.051Z,19.98
2022-09-06T01:40:36.421Z,20.16
2022-09-06T01:43:10.678Z,20.17
2022-09-06T01:45:58.987Z,20.09
2022-09-06T01:49:02.317Z,20.02
2022-09-06T01:51:44.381Z,20.08
2022-09-06T01:54:36.137Z,20.10
2022-09-06T01:57:11.691Z,20.16
2022-09-06T01:59:50.293Z,20.18
2022-09-06T02:02:28.242Z,20.20
2022-09-06T02:05:06.439Z,20.19
2022-09-06T02:07:35.665Z,20.19
2022-09-06T02:10:25.571Z,20.31
2022-09-06T02:12:56.455Z,20.38
2022-09-06T02:15:31.270Z,20.39
2022-09-06T02:18:06.112Z,20.41
2022-09-06T02:20:37.577Z,20.35
2022-09-06T02:23:06.907Z,20.44
2022-09-06T02:25:40.095Z,20.40
2022-09-06T02:28:08.060Z,20.35
2022-09-06T02:30:42.907Z,20.42
2022-09-06T02:33:18.669Z,20.36
2022-09-06T02:35:48.897Z,20.20
2022-09-06T02:38:16.291Z,20.15
2022-09-06T02:40:44.261Z,20.20
2022-09-06T02:43:10.704Z,20.17
2022-09-06T02:45:37.487Z,20.22
2022-09-06T02:48:04.072Z,20.24
2022-09-06T02:50:30.902Z,20.23
2022-09-06T02:53:09.972Z,20.13
2022-09-06T02:55:37.781Z,20.12
2022-09-06T02:58:05.166Z,20.24
2022-09-06T03:00:31.690Z,20.24
2022-09-06T03:02:58.285Z,20.10
2022-09-06T03:05:26.179Z,19.98
2022-09-06T03:07:53.269Z,19.83
2022-09-06T03:10:20.387Z,19.76
2022-09-06T03:12:47.215Z,19.69
2022-09-06T03:15:15.573Z,19.49
2022-09-06T03:17:42.229Z,19.56
2022-09-06T03:20:09.929Z,19.74
2022-09-06T03:22:39.816Z,19.59
2022-09-06T03:25:07.810Z,19.44
2022-09-06T03:27:34.555Z,19.44
2022-09-06T03:30:01.040Z,19.61
2022-09-06T03:32:27.486Z,19.50
2022-09-06T03:34:54.006Z,19.58
2022-09-06T03:37:20.486Z,19.61
2022-09-06T03:39:47.009Z,19.57
2022-09-06T03:42:13.513Z,19.52
2022-09-06T03:44:39.990Z,19.64
2022-09-06T03:47:06.508Z,19.64
2022-09-06T03:49:32.955Z,19.58
2022-09-06T03:51:59.407Z,19.54
2022-09-06T03:54:28.003Z,19.38
2022-09-06T03:56:55.614Z,19.31
2022-09-06T03:59:22.043Z,19.38
2022-09-06T04:01:48.559Z,19.40
2022-09-06T04:04:15.050Z,19.48
2022-09-06T04:06:41.492Z,19.43
2022-09-06T04:09:07.939Z,19.39
2022-09-06T04:11:34.381Z,19.44
2022-09-06T04:14:00.831Z,19.37
2022-09-06T04:16:27.361Z,19.33
2022-09-06T04:18:53.880Z,19.44
2022-09-06T04:21:20.350Z,19.35
2022-09-06T04:23:46.800Z,19.43
2022-09-06T04:26:13.294Z,19.51
2022-09-06T04:28:39.825Z,19.45
2022-09-06T04:31:06.334Z,19.39
2022-09-06T04:33:34.814Z,19.40
2022-09-06T04:36:02.838Z,19.39
2022-09-06T04:38:30.857Z,19.36
2022-09-06T04:40:57.328Z,19.26
2022-09-06T04:43:24.182Z,19.02
2022-09-06T04:45:50.747Z,19.11
2022-09-06T04:48:17.494Z,19.11
2022-09-06T04:50:44.031Z,19.00
2022-09-06T04:53:13.635Z,19.26
2022-09-06T04:55:40.359Z,19.18
2022-09-06T04:58:06.969Z,19.01
2022-09-06T05:00:36.084Z,19.04
2022-09-06T05:03:02.608Z,19.09
2022-09-06T05:05:29.077Z,19.08
2022-09-06T05:07:56.297Z,18.97
2022-09-06T05:10:24.288Z,18.99
2022-09-06T05:12:52.921Z,19.07
2022-09-06T05:15:21.679Z,19.21
2022-09-06T05:17:48.371Z,19.09
2022-09-06T05:20:14.845Z,19.11
2022-09-06T05:22:41.754Z,19.33
2022-09-06T05:25:09.302Z,19.30
2022-09-06T05:27:36.322Z,19.28
2022-09-06T05:30:04.145Z,19.28
2022-09-06T05:32:30.673Z,19.37
2022-09-06T05:34:57.116Z,19.45
2022-09-06T05:37:23.842Z,19.50
2022-09-06T05:39:50.346Z,19.56
2022-09-06T05:42:19.311Z,19.28
2022-09-06T05:44:45.983Z,19.31
2022-09-06T05:47:12.607Z,19.44
2022-09-06T05:49:39.110Z,19.46
2022-09-06T05:52:05.556Z,19.56
2022-09-06T05:54:32.013Z,19.59
2022-09-06T05:56:58.483Z,19.56
2022-09-06T05:59:25.083Z,19.60
2022-09-06T06:01:53.285Z,19.64
2022-09-06T06:04:21.018Z,19.65
2022-09-06T06:06:48.959Z,19.70
2022-09-06T06:09:16.658Z,19.85
2022-09-06T06:11:43.638Z,20.03
2022-09-06T06:14:10.549Z,20.11
2022-09-06T06:16:37.170Z,19.90
2022-09-06T06:19:03.706Z,19.81
2022-09-06T06:21:31.864Z,19.97
2022-09-06T06:24:01.421Z,19.85
2022-09-06T06:26:30.012Z,19.81
2022-09-06T06:28:58.868Z,19.81
2022-09-06T06:31:25.529Z,20.00
2022-09-06T06:33:52.088Z,19.99
2022-09-06T06:36:21.807Z,19.91
2022-09-06T06:38:49.827Z,19.95
2022-09-06T06:41:19.319Z,20.04
2022-09-06T06:43:45.947Z,20.09
2022-09-06T06:46:17.318Z,20.17
2022-09-06T06:48:45.540Z,20.40
2022-09-06T06:51:17.383Z,20.49
2022-09-06T06:53:44.956Z,20.44
2022-09-06T06:56:28.729Z,20.42
2022-09-06T06:58:57.714Z,20.41
2022-09-06T07:01:26.395Z,20.48
2022-09-06T07:03:53.161Z,20.62
2022-09-06T07:06:21.000Z,20.63
2022-09-06T07:08:47.885Z,20.49
2022-09-06T07:11:17.274Z,20.41
2022-09-06T07:13:45.241Z,20.42
2022-09-06T07:16:18.451Z,20.34
2022-09-06T07:18:45.885Z,20.38
2022-09-06T07:26:31.615Z,20.51
2022-09-06T07:29:00.308Z,20.43
2022-09-06T07:34:15.047Z,19.99
2022-09-06T07:36:41.482Z,19.95
2022-09-06T07:39:07.965Z,19.87
2022-09-06T07:41:34.439Z,19.85
2022-09-06T07:44:00.869Z,19.69
2022-09-06T07:46:27.425Z,19.69
2022-09-06T07:48:53.892Z,19.82
2022-09-06T07:51:21.940Z,19.82
2022-09-06T07:54:07.013Z,19.88
2022-09-06T07:56:39.784Z,20.00
2022-09-06T07:59:06.361Z,20.16
2022-09-06T08:01:37.402Z,20.32
2022-09-06T08:04:13.129Z,20.50
2022-09-06T08:09:33.021Z,21.22
2022-09-06T08:11:59.841Z,21.54
2022-09-06T08:14:26.270Z,21.69
2022-09-06T08:16:52.714Z,21.72
2022-09-06T08:19:19.256Z,22.21
2022-09-06T08:21:45.716Z,23.20
2022-09-06T08:24:12.227Z,24.33
2022-09-06T08:26:40.533Z,24.77
2022-09-06T08:29:08.696Z,24.90
2022-09-06T08:31:38.483Z,25.47
2022-09-06T08:34:05.432Z,25.89
2022-09-06T08:36:32.279Z,25.92
2022-09-06T08:39:00.309Z,26.43
2022-09-06T08:41:48.803Z,25.82
2022-09-06T08:47:20.576Z,26.84
2022-09-06T08:50:06.686Z,27.76
2022-09-06T08:53:18.307Z,27.31
2022-09-06T08:55:45.607Z,27.19
2022-09-06T08:58:30.901Z,27.46
2022-09-06T09:01:12.579Z,28.86
2022-09-06T09:03:42.068Z,29.08
2022-09-06T09:06:10.188Z,29.47
2022-09-06T09:08:55.291Z,30.97
2022-09-06T09:11:25.299Z,32.58
2022-09-06T09:14:02.737Z,33.90
2022-09-06T09:16:29.227Z,34.18
2022-09-06T09:19:00.307Z,34.56
2022-09-06T09:21:30.737Z,34.33
2022-09-06T09:24:04.290Z,34.12
2022-09-06T09:26:42.182Z,33.63
2022-09-06T09:29:14.010Z,35.54
2022-09-06T09:31:53.420Z,32.97
2022-09-06T09:34:35.059Z,34.42
2022-09-06T09:40:14.971Z,35.65
2022-09-06T09:42:42.231Z,36.23
2022-09-06T09:45:21.082Z,36.32
2022-09-06T09:47:47.622Z,36.71
2022-09-06T09:50:31.754Z,35.30
2022-09-06T09:53:10.262Z,34.91
2022-09-06T09:55:37.459Z,35.74
2022-09-06T09:58:05.393Z,36.55
2022-09-06T10:00:40.290Z,37.83
2022-09-06T10:03:29.434Z,37.84
2022-09-06T10:06:02.621Z,38.48
2022-09-06T10:08:33.062Z,38.84
2022-09-06T10:10:59.678Z,38.73
2022-09-06T10:13:29.705Z,37.32
2022-09-06T10:15:58.688Z,35.99
2022-09-06T10:18:35.938Z,35.67
2022-09-06T10:21:05.679Z,34.42
2022-09-06T10:26:51.389Z,34.12
2022-09-06T10:29:53.115Z,33.48
2022-09-06T10:32:34.620Z,32.27
2022-09-06T10:35:05.857Z,32.05
2022-09-06T10:37:55.178Z,31.72
2022-09-06T10:40:30.450Z,31.34
2022-09-06T10:43:00.427Z,31.08
2022-09-06T10:45:37.160Z,30.66
2022-09-06T10:48:04.862Z,30.42
2022-09-06T10:50:52.871Z,29.97
2022-09-06T10:53:22.272Z,29.60
2022-09-06T10:56:01.658Z,29.28
2022-09-06T11:01:39.276Z,28.50
2022-09-06T11:04:12.707Z,28.12
2022-09-06T11:06:47.595Z,27.90
2022-09-06T11:09:39.222Z,27.51
2022-09-06T11:12:30.417Z,27.16
2022-09-06T11:14:56.883Z,27.04
2022-09-06T11:17:36.372Z,27.00
2022-09-06T11:20:13.811Z,26.79
2022-09-06T11:23:34.719Z,26.41
2022-09-06T11:26:04.342Z,26.37
2022-09-06T11:28:35.806Z,26.17
2022-09-06T11:31:04.095Z,26.19
2022-09-06T11:33:39.771Z,26.16
2022-09-06T11:36:39.629Z,25.86
2022-09-06T11:39:08.839Z,25.55
2022-09-06T11:41:39.926Z,25.30
2022-09-06T11:44:09.851Z,25.20
2022-09-06T11:46:36.510Z,25.01
2022-09-06T11:49:06.814Z,24.80
2022-09-06T11:51:40.438Z,24.68
2022-09-06T11:54:47.101Z,24.58
2022-09-06T11:57:17.359Z,24.36
2022-09-06T11:59:46.380Z,24.28
2022-09-06T12:02:41.145Z,24.22
2022-09-06T12:05:11.955Z,24.14
2022-09-06T12:07:59.282Z,24.17
2022-09-06T12:10:31.612Z,24.10
2022-09-06T12:12:59.045Z,24.20
2022-09-06T12:15:32.764Z,24.12
2022-09-06T12:18:00.627Z,24.19
2022-09-06T12:21:03.069Z,24.41
2022-09-06T12:23:35.397Z,24.44
2022-09-06T12:26:06.810Z,24.20
2022-09-06T12:29:04.111Z,24.09
2022-09-06T12:31:46.786Z,23.96
2022-09-06T12:34:19.063Z,24.04
2022-09-06T12:36:55.598Z,24.05
2022-09-06T12:39:22.557Z,24.05
2022-09-06T12:41:54.966Z,24.32
2022-09-06T12:44:37.152Z,24.41
2022-09-06T12:47:10.742Z,24.21
2022-09-06T12:49:37.432Z,24.12
2022-09-06T12:52:16.089Z,24.17
2022-09-06T12:54:50.226Z,24.05
2022-09-06T12:57:23.334Z,24.14
2022-09-06T12:59:55.473Z,24.24
2022-09-06T13:03:06.199Z,24.35
2022-09-06T13:05:32.925Z,24.43
2022-09-06T13:08:03.168Z,24.72
2022-09-06T13:10:29.962Z,24.50
2022-09-06T13:12:58.658Z,24.47
2022-09-06T13:15:31.234Z,24.47
2022-09-06T13:18:20.138Z,24.50
2022-09-06T13:20:59.081Z,24.51
2022-09-06T13:23:25.695Z,24.36
2022-09-06T13:25:53.653Z,24.33
2022-09-06T13:28:29.461Z,24.13
2022-09-06T13:31:14.365Z,24.01
2022-09-06T13:33:41.930Z,23.84
2022-09-06T13:36:08.653Z,23.71
2022-09-06T13:38:45.548Z,23.57
2022-09-06T13:41:35.139Z,23.49
2022-09-06T13:44:16.669Z,23.39
2022-09-06T13:46:43.449Z,23.20
2022-09-06T13:49:09.993Z,23.00
2022-09-06T13:51:38.763Z,22.97
2022-09-06T13:54:07.786Z,22.95
2022-09-06T13:56:35.370Z,22.86
2022-09-06T13:59:03.292Z,22.93
2022-09-06T14:01:30.332Z,22.73
2022-09-06T14:03:57.240Z,22.64
2022-09-06T14:06:23.887Z,22.45
2022-09-06T14:09:06.237Z,22.48
2022-09-06T14:11:33.186Z,22.40
2022-09-06T14:13:59.731Z,22.33
2022-09-06T14:16:26.264Z,22.26
2022-09-06T14:18:52.721Z,22.40
2022-09-06T14:21:19.360Z,22.46
2022-09-06T14:23:50.992Z,22.27
2022-09-06T14:26:18.862Z,22.23
2022-09-06T14:28:45.630Z,21.89
2022-09-06T14:31:14.535Z,21.64
2022-09-06T14:33:41.080Z,21.70
2022-09-06T14:36:09.679Z,21.81
2022-09-06T14:38:38.006Z,21.73
2022-09-06T14:41:05.601Z,21.57
2022-09-06T14:43:32.278Z,21.63
2022-09-06T14:46:04.297Z,21.71
2022-09-06T14:48:31.503Z,21.64
2022-09-06T14:50:58.199Z,21.77
2022-09-06T14:53:39.688Z,21.89
2022-09-06T14:56:08.332Z,21.88
2022-09-06T14:58:37.442Z,21.99
2022-09-06T15:01:15.784Z,22.18
2022-09-06T15:03:48.491Z,22.34
2022-09-06T15:06:16.228Z,22.30
2022-09-06T15:08:42.750Z,22.32
2022-09-06T15:11:09.780Z,22.27
2022-09-06T15:13:37.333Z,22.15
2022-09-06T15:16:05.314Z,22.02
2022-09-06T15:18:33.157Z,21.79
2022-09-06T15:21:09.780Z,21.71
2022-09-06T15:23:36.722Z,21.70
2022-09-06T15:26:03.690Z,21.45
2022-09-06T15:28:30.178Z,21.27
2022-09-06T15:30:56.680Z,21.25
2022-09-06T15:33:23.209Z,21.23
2022-09-06T15:35:55.610Z,21.25
2022-09-06T15:38:22.118Z,21.24
2022-09-06T15:40:48.820Z,21.22
2022-09-06T15:43:15.621Z,21.42
2022-09-06T15:45:50.021Z,21.35
2022-09-06T15:48:17.399Z,21.17
2022-09-06T15:50:51.313Z,21.07
2022-09-06T15:53:19.378Z,21.00
2022-09-06T15:55:57.939Z,21.01
2022-09-06T15:58:26.734Z,21.10
2022-09-06T16:01:21.078Z,20.94
2022-09-06T16:03:49.689Z,20.91
2022-09-06T16:06:26.238Z,20.75
2022-09-06T16:09:05.617Z,20.78
2022-09-06T16:11:33.471Z,20.87
2022-09-06T16:13:59.918Z,21.10
2022-09-06T16:16:26.467Z,21.03
2022-09-06T16:18:53.113Z,20.95
2022-09-06T16:21:25.078Z,21.03
2022-09-06T16:23:54.218Z,21.10
2022-09-06T16:26:21.911Z,21.15
2022-09-06T16:28:50.317Z,21.23
2022-09-06T16:31:17.841Z,21.33
2022-09-06T16:33:45.670Z,21.42
2022-09-06T16:36:13.891Z,21.52
2022-09-06T16:38:41.230Z,21.58
2022-09-06T16:41:25.204Z,21.57
2022-09-06T16:43:52.647Z,21.52
2022-09-06T16:46:21.190Z,21.51
2022-09-06T16:48:55.507Z,21.43
2022-09-06T16:51:24.677Z,21.38
2022-09-06T16:53:52.176Z,21.43
2022-09-06T16:56:21.442Z,21.37
2022-09-06T16:59:08.875Z,21.27
2022-09-06T17:01:37.354Z,21.27
2022-09-06T17:04:04.681Z,21.23
2022-09-06T17:06:33.226Z,21.24
2022-09-06T17:08:59.869Z,21.12
2022-09-06T17:11:28.226Z,21.11
2022-09-06T17:13:56.607Z,21.13
2022-09-06T17:16:42.515Z,21.10
2022-09-06T17:19:09.942Z,21.00
2022-09-06T17:21:37.409Z,20.93
2022-09-06T17:24:05.214Z,20.82
2022-09-06T17:26:33.785Z,20.92
2022-09-06T17:29:00.585Z,20.79
2022-09-06T17:31:27.249Z,20.95
2022-09-06T17:33:54.492Z,21.03
2022-09-06T17:36:32.277Z,20.86
2022-09-06T17:39:13.885Z,20.84
2022-09-06T17:41:42.382Z,20.73
2022-09-06T17:44:11.093Z,20.70
2022-09-06T17:46:47.568Z,20.71
2022-09-06T17:49:19.191Z,20.73
2022-09-06T17:51:46.723Z,20.83
2022-09-06T17:54:14.724Z,20.87
2022-09-06T17:56:41.345Z,20.72
2022-09-06T17:59:11.146Z,20.64
2022-09-06T18:01:38.575Z,20.57
2022-09-06T18:04:06.647Z,20.54
2022-09-06T18:06:34.107Z,20.46
2022-09-06T18:09:07.110Z,20.39
2022-09-06T18:11:33.854Z,20.27
2022-09-06T18:14:02.876Z,20.28
2022-09-06T18:16:30.634Z,20.27
2022-09-06T18:19:00.238Z,20.24
2022-09-06T18:21:28.306Z,20.19
2022-09-06T18:23:55.963Z,20.09
2022-09-06T18:26:22.842Z,20.12
2022-09-06T18:28:50.136Z,20.22
2022-09-06T18:31:19.008Z,20.12
2022-09-06T18:33:45.666Z,20.11
2022-09-06T18:36:13.333Z,20.05
2022-09-06T18:38:42.701Z,20.00
2022-09-06T18:41:30.978Z,20.00
2022-09-06T18:44:02.480Z,20.05
2022-09-06T18:46:34.055Z,19.97
2022-09-06T18:49:01.126Z,19.94
2022-09-06T18:51:28.318Z,19.92
2022-09-06T18:53:57.007Z,19.92
2022-09-06T18:56:24.378Z,19.92
2022-09-06T18:58:54.726Z,19.80
2022-09-06T19:01:21.872Z,19.77
2022-09-06T19:03:48.462Z,19.75
2022-09-06T19:06:17.125Z,19.71
2022-09-06T19:08:44.414Z,19.58
2022-09-06T19:11:13.747Z,19.58
2022-09-06T19:13:44.120Z,19.57
2022-09-06T19:16:13.010Z,19.59
2022-09-06T19:18:40.691Z,19.62
2022-09-06T19:21:11.219Z,19.54
2022-09-06T19:23:40.243Z,19.52
2022-09-06T19:26:13.984Z,19.65
2022-09-06T19:28:41.203Z,19.56
2022-09-06T19:31:13.238Z,19.59
2022-09-06T19:33:40.957Z,19.55
2022-09-06T19:36:11.854Z,19.55
2022-09-06T19:39:01.963Z,19.62
2022-09-06T19:41:27.394Z,19.70
2022-09-06T19:43:55.561Z,19.58
2022-09-06T19:46:23.207Z,19.70
2022-09-06T19:48:51.780Z,19.64
2022-09-06T19:51:19.361Z,19.66
2022-09-06T19:53:52.991Z,19.63
2022-09-06T19:56:26.065Z,19.49
2022-09-06T19:58:53.765Z,19.39
2022-09-06T20:01:20.241Z,19.42
2022-09-06T20:03:46.873Z,19.43
2022-09-06T20:06:13.404Z,19.36
2022-09-06T20:08:40.435Z,19.33
2022-09-06T20:11:09.592Z,19.34
2022-09-06T20:13:37.571Z,19.39
2022-09-06T20:16:05.740Z,19.47
2022-09-06T20:18:32.330Z,19.47
2022-09-06T20:21:01.370Z,19.52
2022-09-06T20:23:29.118Z,19.56
2022-09-06T20:26:07.636Z,19.56
2022-09-06T20:28:34.881Z,19.50
2022-09-06T20:31:07.504Z,19.47
2022-09-06T20:33:34.981Z,19.40
2022-09-06T20:36:03.943Z,19.37
2022-09-06T20:38:31.612Z,19.27
2022-09-06T20:41:00.260Z,19.24
2022-09-06T20:43:26.778Z,19.05
2022-09-06T20:45:53.939Z,19.07
2022-09-06T20:48:20.405Z,19.31
2022-09-06T20:50:46.929Z,19.39
2022-09-06T20:53:13.369Z,19.40
2022-09-06T20:55:39.810Z,19.56
2022-09-06T20:58:06.256Z,19.74
2022-09-06T21:00:33.208Z,19.60
2022-09-06T21:02:59.727Z,19.70
2022-09-06T21:05:26.244Z,19.70
2022-09-06T21:07:52.671Z,19.60
2022-09-06T21:10:19.120Z,19.58
2022-09-06T21:12:46.130Z,19.58
2022-09-06T21:15:12.597Z,19.41
2022-09-06T21:17:39.192Z,19.29
2022-09-06T21:20:06.649Z,19.16
2022-09-06T21:22:33.204Z,19.23
2022-09-06T21:24:59.640Z,19.15
2022-09-06T21:27:26.085Z,19.05
2022-09-06T21:29:52.554Z,19.11
2022-09-06T21:32:19.053Z,19.15
2022-09-06T21:34:45.505Z,19.10
2022-09-06T21:37:11.940Z,19.10
2022-09-06T21:39:39.065Z,19.15
2022-09-06T21:42:05.907Z,19.12
2022-09-06T21:44:33.449Z,19.10
2022-09-06T21:46:59.986Z,19.08
2022-09-06T21:49:26.448Z,19.07
2022-09-06T21:51:52.871Z,18.99
2022-09-06T21:54:19.309Z,18.90
2022-09-06T21:56:46.616Z,18.88
2022-09-06T21:59:13.076Z,18.87
2022-09-06T22:01:40.666Z,18.88
2022-09-06T22:04:07.533Z,18.87
2022-09-06T22:06:35.421Z,18.78
2022-09-06T22:09:10.524Z,18.76
2022-09-06T22:11:41.110Z,18.76
2022-09-06T22:14:10.044Z,18.68
2022-09-06T22:16:38.320Z,18.73
2022-09-06T22:19:06.595Z,18.64
2022-09-06T22:21:33.786Z,18.66
2022-09-06T22:24:06.345Z,18.67
2022-09-06T22:26:34.902Z,18.72
2022-09-06T22:29:04.923Z,18.84
2022-09-06T22:31:32.896Z,18.81
2022-09-06T22:34:00.281Z,18.68
2022-09-06T22:36:27.170Z,18.75
2022-09-06T22:38:57.377Z,18.85
2022-09-06T22:41:25.721Z,18.85
2022-09-06T22:43:52.292Z,18.91
2022-09-06T22:46:18.858Z,18.83
2022-09-06T22:48:45.351Z,18.93
2022-09-06T22:51:11.838Z,18.89
2022-09-06T22:53:38.374Z,18.92
2022-09-06T22:56:05.067Z,18.87
2022-09-06T22:58:32.798Z,18.77
2022-09-06T23:01:06.724Z,18.75
2022-09-06T23:03:33.428Z,18.72
2022-09-06T23:06:00.796Z,18.80
2022-09-06T23:08:27.265Z,18.82
2022-09-06T23:10:53.747Z,18.87
2022-09-06T23:13:20.196Z,18.92
2022-09-06T23:15:47.649Z,18.99
2022-09-06T23:18:15.012Z,19.05
2022-09-06T23:20:41.480Z,19.07
2022-09-06T23:23:08.292Z,19.01
2022-09-06T23:25:38.862Z,19.04
2022-09-06T23:28:05.886Z,18.90
2022-09-06T23:30:32.532Z,18.99
2022-09-06T23:32:58.998Z,19.08
2022-09-06T23:35:25.516Z,19.09
2022-09-06T23:37:52.208Z,18.97
2022-09-06T23:40:19.575Z,18.89
2022-09-06T23:42:46.441Z,18.84
2022-09-06T23:45:13.222Z,18.80
2022-09-06T23:47:39.682Z,18.80
2022-09-06T23:50:07.224Z,18.74
2022-09-06T23:52:33.717Z,18.71
2022-09-06T23:55:00.192Z,18.74
2022-09-06T23:57:26.734Z,18.61
2022-09-06T23:59:53.166Z,18.56
